Amsterdam, Netherlands

9:16 AM CET on November 01, 2014 (GMT +0100)
Schiphol | Change Station
CLOSE
Current Station
Personal Weather Station
Location: Badhoevedorp, NOORD HOLLAND
Elevation: -10 ft
Nearby Weather Stations

Elev -10 ft 52.33 °N, 4.78 °E | Updated 13 minutes ago

Clear
Clear
54.5 °F
Feels Like 54.5 °F
N
1.0
Wind Variable Wind from SSE
Gusts 5.0 mph

Today
High -- | Low -- °F
--% Chance of Precip.
Yesterday
High -- | Low -- °F
Precip. -- in
7:36 AM 5:11 PM
Waxing Gibbous, 64% visible
Pressure 30.04 in
Visibility -9999.0 miles
Clouds
Dew Point 51 °F
Humidity 89%
Rainfall 0.00 in
Snow Depth Not available.
UV 0.0 out of 12
Pollen Not available.
Air Quality Not available.
Flu Activity Not available.
METAR EHAM 010755Z 17007KT CAVOK 12/11 Q1017 NOSIG

More Conditions Fewer Conditions

Pressure 30.04 in
Visibility -9999.0 miles
Clouds
Dew Point 51 °F
Humidity 89%
Rainfall 0.00 in
Snow Depth Not available.
UV 0.0 out of 12
Pollen Not available.
Air Quality Not available.
Flu Activity Not available.
METAR EHAM 010755Z 17007KT CAVOK 12/11 Q1017 NOSIG

More Conditions Fewer Conditions

10-Day Weather Forecast

Almanac

Astronomy

Nov. 01, 2014 Rise Set
Actual Time
Civil Twilight
Nautical Twilight
Astronomical Twilight
Moon
Length of Visible Light
Length of Day
Tomorrow will be .
, % of the Moon is Illuminated

Today's Extremes

Country Highs Country Lows

Community

WunderPhotos

Upload Photos

1,766,866 photos uploaded!

WunderBlogs® & News

Nearby

Air Quality

  Air Quality AQ Index Pollutant
Not available.

Snow Depth

Station Depth Elevation

Earthquake Activity

City Distance Mag. Time & Date
Minimum magnitude displayed is 2.5.

Coastal Water Temperatures

Place Temperature

Nearby Weather Stations